Time;durP1;ratioP1;P1;durP2;ratioP2;P2;SDS_P1;SDS_P2;PMS_P1;PMS_P2;Temp;Humidity;BMP_temperature;BMP_pressure;BME280_temperature;BME280_humidity;BME280_pressure;Samples;Min_cycle;Max_cycle;Signal;HPM_P1;HPM_P2
2023/07/09 00:02:15;;;;;;;;;;;;;;;18.22;42.04;95917.50;4966243;28;19930;-72
2023/07/09 00:04:40;;;;;;;;;;;;;;;18.24;39.79;95918.94;4969731;28;19946;-71
2023/07/09 00:07:05;;;;;;;;;;;;;;;18.27;40.52;95917.66;4965677;28;19914;-72
2023/07/09 00:09:30;;;;;;;;;;;;;;;18.30;39.54;95914.53;4934797;28;19988;-72
2023/07/09 00:11:56;;;;;;;;;;;;;;;18.28;41.82;95920.13;4961857;28;19922;-71
2023/07/09 00:14:21;;;;;;;;;;;;;;;18.25;41.47;95919.78;4966556;28;19924;-72
2023/07/09 00:16:49;;;;;;;;;;;;;;;18.23;41.05;95917.28;4966838;28;19941;-72
2023/07/09 00:19:16;;;;;;;;;;;;;;;18.20;41.04;95920.41;4966341;28;20418;-72
2023/07/09 00:21:41;;;;;;;;;;;;;;;18.19;41.73;95916.09;4967154;28;19914;-72
2023/07/09 00:24:07;;;;;;;;;;;;;;;18.19;40.62;95916.09;4958160;28;19926;-72
2023/07/09 00:26:32;;;;;;;;;;;;;;;18.20;40.08;95923.13;4962915;28;19921;-71
2023/07/09 00:28:58;;;;;;;;;;;;;;;18.16;41.37;95917.31;4953888;28;19929;-72
2023/07/09 00:31:23;;;;;;;;;;;;;;;18.16;40.72;95927.28;4965227;28;19914;-72
2023/07/09 00:33:49;;;;;;;;;;;;;;;18.17;40.70;95923.53;4966059;28;19914;-72
2023/07/09 00:36:16;;;;;;;;;;;;;;;18.15;42.72;95926.47;4963245;28;19921;-72
2023/07/09 00:38:47;;;;;;;;;;;;;;;18.09;41.62;95918.44;4964695;28;19918;-72
2023/07/09 00:41:17;;;;;;;;;;;;;;;18.07;41.61;95923.19;4967092;28;20387;-71
2023/07/09 00:43:43;;;;;;;;;;;;;;;18.06;40.80;95925.09;4953171;28;19918;-72
2023/07/09 00:46:11;;;;;;;;;;;;;;;18.03;41.68;95923.66;4964343;28;19937;-71
2023/07/09 00:48:37;;;;;;;;;;;;;;;18.05;39.92;95918.88;4965545;28;20233;-72
2023/07/09 00:51:04;;;;;;;;;;;;;;;18.05;40.79;95918.88;4966123;28;20623;-72
2023/07/09 00:53:29;;;;;;;;;;;;;;;18.11;39.37;95911.78;4957057;28;19918;-71
2023/07/09 00:55:56;;;;;;;;;;;;;;;18.12;40.68;95918.81;4956056;28;19929;-72
2023/07/09 00:58:21;;;;;;;;;;;;;;;18.12;41.63;95918.81;4956115;28;19921;-72
2023/07/09 01:00:49;;;;;;;;;;;;;;;18.04;40.98;95919.06;4963889;28;19941;-72
2023/07/09 01:03:22;;;;;;;;;;;;;;;17.99;40.94;95927.84;4992248;23;20029;-72
2023/07/09 01:05:51;;;;;;;;;;;;;;;17.92;42.24;95924.34;4990939;28;19956;-72
2023/07/09 01:08:16;;;;;;;;;;;;;;;17.85;41.74;95924.38;4986953;28;19924;-71
2023/07/09 01:10:43;;;;;;;;;;;;;;;17.82;41.46;95923.97;4992741;28;20353;-71
2023/07/09 01:13:08;;;;;;;;;;;;;;;17.76;41.21;95925.66;5017108;28;19971;-71
2023/07/09 01:15:34;;;;;;;;;;;;;;;17.71;42.68;95926.31;4991819;28;20277;-72
2023/07/09 01:17:59;;;;;;;;;;;;;;;17.70;41.82;95923.81;4993577;28;19933;-71
2023/07/09 01:20:26;;;;;;;;;;;;;;;17.71;40.71;95928.19;4983734;28;19929;-72
2023/07/09 01:22:54;;;;;;;;;;;;;;;17.71;41.19;95926.31;4992273;28;20370;-71
2023/07/09 01:25:19;;;;;;;;;;;;;;;17.71;40.19;95925.50;4982421;28;19968;-72
2023/07/09 01:27:46;;;;;;;;;;;;;;;17.70;42.16;95927.34;4994187;28;20703;-72
2023/07/09 01:30:14;;;;;;;;;;;;;;;17.69;41.70;95927.56;4982824;28;20429;-72
2023/07/09 01:32:45;;;;;;;;;;;;;;;17.65;41.54;95928.00;4979665;28;20295;-71
2023/07/09 01:35:11;;;;;;;;;;;;;;;17.62;40.70;95927.63;4991041;28;19913;-72
2023/07/09 01:37:36;;;;;;;;;;;;;;;17.59;40.65;95931.56;4994836;28;20402;-72
2023/07/09 01:40:04;;;;;;;;;;;;;;;17.53;41.25;95927.88;4981499;28;19918;-71
2023/07/09 01:42:30;;;;;;;;;;;;;;;17.49;41.40;95933.88;4998597;28;20027;-71
2023/07/09 01:44:55;;;;;;;;;;;;;;;17.41;41.12;95926.91;4992102;28;19988;-71
2023/07/09 01:47:20;;;;;;;;;;;;;;;17.36;40.66;95932.06;4990067;28;19969;-72
2023/07/09 01:49:46;;;;;;;;;;;;;;;17.35;40.99;95925.88;4997977;28;19996;-71
2023/07/09 01:52:12;;;;;;;;;;;;;;;17.38;41.27;95935.41;4992821;28;19961;-71
2023/07/09 01:54:37;;;;;;;;;;;;;;;17.40;40.93;95930.59;4992297;28;20302;-71
2023/07/09 01:57:16;;;;;;;;;;;;;;;17.42;41.24;95931.22;4992685;28;19999;-72
2023/07/09 01:59:41;;;;;;;;;;;;;;;17.49;41.24;95932.03;4974004;28;19932;-72
2023/07/09 02:02:18;;;;;;;;;;;;;;;17.55;40.26;95927.66;4992823;28;19925;-72
2023/07/09 02:04:44;;;;;;;;;;;;;;;17.63;40.49;95932.78;5018498;28;20439;-72
2023/07/09 02:07:10;;;;;;;;;;;;;;;17.66;40.00;95936.91;5001011;28;19942;-72
2023/07/09 02:09:35;;;;;;;;;;;;;;;17.64;41.13;95937.13;5000953;28;20427;-72
2023/07/09 02:12:02;;;;;;;;;;;;;;;17.64;41.11;95936.31;5001686;28;19917;-71
2023/07/09 02:14:27;;;;;;;;;;;;;;;17.57;41.26;95932.81;5003091;28;19972;-72
2023/07/09 02:16:52;;;;;;;;;;;;;;;17.58;41.40;95932.63;4999296;28;19917;-72
2023/07/09 02:19:18;;;;;;;;;;;;;;;17.53;41.47;95937.78;5012034;28;20019;-71
2023/07/09 02:21:43;;;;;;;;;;;;;;;17.53;40.67;95929.72;5002771;28;19913;-72
2023/07/09 02:24:08;;;;;;;;;;;;;;;17.57;41.05;95924.75;5012959;28;20596;-72
2023/07/09 02:26:33;;;;;;;;;;;;;;;17.55;41.17;95933.03;5012136;28;19986;-71
2023/07/09 02:28:59;;;;;;;;;;;;;;;17.53;40.62;95933.25;5000307;28;19963;-72
2023/07/09 02:31:24;;;;;;;;;;;;;;;17.49;40.41;95923.97;5013041;28;19918;-72
2023/07/09 02:33:50;;;;;;;;;;;;;;;17.49;40.69;95928.50;5001845;28;19917;-72
2023/07/09 02:36:16;;;;;;;;;;;;;;;17.48;40.50;95937.63;5013469;28;19979;-72
2023/07/09 02:38:41;;;;;;;;;;;;;;;17.44;42.44;95928.34;5001573;28;19947;-72
2023/07/09 02:41:06;;;;;;;;;;;;;;;17.37;40.80;95934.56;5009960;28;20034;-72
2023/07/09 02:43:31;;;;;;;;;;;;;;;17.40;41.41;95939.53;5010063;28;20031;-72
2023/07/09 02:45:56;;;;;;;;;;;;;;;17.39;41.97;95937.88;5008897;28;19924;-72
2023/07/09 02:48:22;;;;;;;;;;;;;;;17.38;42.63;95944.28;5011325;28;19921;-72
2023/07/09 02:50:47;;;;;;;;;;;;;;;17.35;41.51;95957.34;5015685;28;20368;-72
2023/07/09 02:53:12;;;;;;;;;;;;;;;17.31;42.67;95942.66;5004985;28;19967;-72
2023/07/09 02:55:37;;;;;;;;;;;;;;;17.25;43.10;95950.56;5018230;28;19917;-72
2023/07/09 02:58:03;;;;;;;;;;;;;;;17.22;41.87;95948.28;5014049;28;19928;-72
2023/07/09 03:00:28;;;;;;;;;;;;;;;17.28;40.66;95954.69;5015413;28;20526;-72
2023/07/09 03:02:53;;;;;;;;;;;;;;;17.35;40.26;95951.97;5013191;28;20365;-72
2023/07/09 03:05:19;;;;;;;;;;;;;;;17.39;40.33;95961.25;5004501;28;19928;-71
2023/07/09 03:07:44;;;;;;;;;;;;;;;17.45;40.27;95960.41;5004609;28;19921;-72
2023/07/09 03:10:09;;;;;;;;;;;;;;;17.53;39.88;95962.03;5015371;28;19917;-72
2023/07/09 03:12:34;;;;;;;;;;;;;;;17.52;41.48;95955.84;5019044;28;19924;-71
2023/07/09 03:15:00;;;;;;;;;;;;;;;17.52;40.75;95955.00;5014112;28;19925;-72
2023/07/09 03:17:25;;;;;;;;;;;;;;;17.56;39.94;95964.28;5017412;28;20360;-71
2023/07/09 03:19:50;;;;;;;;;;;;;;;17.62;40.12;95966.13;5017756;28;20042;-72
2023/07/09 03:22:16;;;;;;;;;;;;;;;17.63;39.83;95961.56;5015439;28;19944;-72
2023/07/09 03:24:41;;;;;;;;;;;;;;;17.60;40.79;95961.97;5017705;28;19917;-72
2023/07/09 03:27:06;;;;;;;;;;;;;;;17.58;40.53;95966.78;5019943;28;19944;-72
2023/07/09 03:29:32;;;;;;;;;;;;;;;17.54;40.23;95969.88;5015831;28;19961;-72
2023/07/09 03:31:57;;;;;;;;;;;;;;;17.54;40.07;95969.88;5014020;28;19929;-72
2023/07/09 03:34:22;;;;;;;;;;;;;;;17.52;40.63;95969.28;5018083;28;19992;-71
2023/07/09 03:36:47;;;;;;;;;;;;;;;17.54;40.04;95972.56;5012145;28;20373;-72
2023/07/09 03:39:13;;;;;;;;;;;;;;;17.59;39.75;95973.78;5002233;28;19928;-71
2023/07/09 03:41:38;;;;;;;;;;;;;;;17.58;40.08;95969.47;5004034;28;19917;-72
2023/07/09 03:44:03;;;;;;;;;;;;;;;17.59;39.93;95971.94;5012416;28;19943;-72
2023/07/09 03:46:29;;;;;;;;;;;;;;;17.64;40.18;95976.69;5013567;28;20581;-72
2023/07/09 03:48:54;;;;;;;;;;;;;;;17.68;39.51;95977.91;5014705;28;19917;-71
2023/07/09 03:51:19;;;;;;;;;;;;;;;17.69;41.04;95971.47;5000285;28;20346;-71
2023/07/09 03:53:45;;;;;;;;;;;;;;;17.70;40.82;95981.19;5017386;28;19921;-71
2023/07/09 03:56:10;;;;;;;;;;;;;;;17.70;40.43;95983.88;5011243;28;20013;-71
2023/07/09 03:58:35;;;;;;;;;;;;;;;17.74;40.26;95978.91;5011894;28;20024;-72
2023/07/09 04:01:00;;;;;;;;;;;;;;;17.78;41.62;95982.84;5008162;28;20424;-72
2023/07/09 04:03:26;;;;;;;;;;;;;;;17.82;40.14;95986.75;5016105;28;19952;-72
2023/07/09 04:05:51;;;;;;;;;;;;;;;17.85;40.20;95986.31;5012784;28;20569;-72
2023/07/09 04:08:16;;;;;;;;;;;;;;;17.91;40.11;95980.06;5016937;28;20443;-72
2023/07/09 04:10:41;;;;;;;;;;;;;;;17.92;40.92;95981.72;4983368;28;20019;-71
2023/07/09 04:13:07;;;;;;;;;;;;;;;17.92;39.77;95986.31;5019297;28;20023;-72
2023/07/09 04:15:32;;;;;;;;;;;;;;;17.96;42.10;95986.69;5014218;28;19959;-72
2023/07/09 04:17:57;;;;;;;;;;;;;;;17.98;39.53;95987.31;5004374;28;20482;-72
2023/07/09 04:20:23;;;;;;;;;;;;;;;18.02;40.28;95992.03;5010793;28;19913;-72
2023/07/09 04:22:48;;;;;;;;;;;;;;;18.10;39.41;95988.25;4987865;28;19919;-72
2023/07/09 04:25:13;;;;;;;;;;;;;;;18.22;39.29;95992.94;5016928;28;19971;-72
2023/07/09 04:27:39;;;;;;;;;;;;;;;18.29;40.18;95983.75;5003468;28;19994;-72
2023/07/09 04:30:05;;;;;;;;;;;;;;;18.34;39.27;95987.66;4985002;28;20497;-71
2023/07/09 04:32:30;;;;;;;;;;;;;;;18.34;40.18;95990.38;5002108;28;20026;-72
2023/07/09 04:34:55;;;;;;;;;;;;;;;18.40;39.29;95992.19;5015158;28;20619;-72
2023/07/09 04:37:21;;;;;;;;;;;;;;;18.46;38.89;95985.91;5003100;28;19986;-72
2023/07/09 04:39:47;;;;;;;;;;;;;;;18.55;39.33;95989.16;4999330;28;20517;-72
2023/07/09 04:42:13;;;;;;;;;;;;;;;18.66;37.99;95984.97;5017276;28;20754;-72
2023/07/09 04:44:38;;;;;;;;;;;;;;;18.76;38.73;95987.97;5012225;28;19944;-72
2023/07/09 04:47:03;;;;;;;;;;;;;;;18.87;38.64;95996.38;5016488;28;19913;-72
2023/07/09 04:49:29;;;;;;;;;;;;;;;18.93;38.38;95984.69;4982838;28;19976;-72
2023/07/09 04:51:56;;;;;;;;;;;;;;;19.03;38.98;95989.56;5015396;28;19956;-72
2023/07/09 04:54:22;;;;;;;;;;;;;;;19.11;40.31;95997.41;5013876;28;19913;-72
2023/07/09 04:56:48;;;;;;;;;;;;;;;19.20;39.71;95997.91;5002479;28;19920;-72
2023/07/09 04:59:13;;;;;;;;;;;;;;;19.27;38.99;95990.59;5000518;28;19917;-72
2023/07/09 05:01:38;;;;;;;;;;;;;;;19.36;39.25;95993.81;5000237;28;19913;-71
2023/07/09 05:04:04;;;;;;;;;;;;;;;19.46;39.36;95988.72;5019810;28;19952;-71
2023/07/09 05:06:29;;;;;;;;;;;;;;;19.59;39.63;95990.41;5004270;28;19909;-71
2023/07/09 05:08:54;;;;;;;;;;;;;;;19.69;38.36;95994.47;5014464;28;19916;-72
2023/07/09 05:11:20;;;;;;;;;;;;;;;19.79;39.08;95986.63;5000859;28;19924;-71
2023/07/09 05:13:45;;;;;;;;;;;;;;;19.91;38.67;95985.84;4999719;28;20066;-71
2023/07/09 05:16:10;;;;;;;;;;;;;;;20.05;38.93;95995.47;5000174;28;20016;-72
2023/07/09 05:18:36;;;;;;;;;;;;;;;20.17;39.76;95991.97;5012906;28;19937;-71
2023/07/09 05:21:01;;;;;;;;;;;;;;;20.31;39.97;95993.44;5002606;28;19941;-72
2023/07/09 05:23:26;;;;;;;;;;;;;;;20.45;36.96;95987.78;5002389;28;19913;-72
2023/07/09 05:26:01;;;;;;;;;;;;;;;20.64;37.06;95982.34;5015767;28;20413;-72
2023/07/09 05:28:27;;;;;;;;;;;;;;;20.83;39.33;95988.44;5014263;28;19947;-72
2023/07/09 05:30:52;;;;;;;;;;;;;;;20.97;35.59;95983.66;5000529;28;19926;-72
2023/07/09 05:33:18;;;;;;;;;;;;;;;21.12;36.41;95986.66;5007991;28;19920;-72
2023/07/09 05:35:43;;;;;;;;;;;;;;;21.33;36.44;95983.59;5014821;28;19917;-72
2023/07/09 05:38:08;;;;;;;;;;;;;;;21.53;35.60;95988.63;5013258;28;20340;-72
2023/07/09 05:40:34;;;;;;;;;;;;;;;21.73;33.90;95985.50;5001439;28;19967;-71
2023/07/09 05:42:59;;;;;;;;;;;;;;;21.88;34.90;95986.84;5009172;28;19920;-72
2023/07/09 05:45:24;;;;;;;;;;;;;;;22.05;34.68;95989.63;5015674;28;19975;-72
2023/07/09 05:47:49;;;;;;;;;;;;;;;22.20;33.54;95993.69;5002935;28;19956;-72
2023/07/09 05:50:15;;;;;;;;;;;;;;;22.32;34.90;95991.72;5003715;28;19936;-72
2023/07/09 05:52:40;;;;;;;;;;;;;;;22.50;32.77;95995.28;5000489;28;19959;-72
2023/07/09 05:55:05;;;;;;;;;;;;;;;22.66;34.25;95993.66;5000380;28;19967;-71
2023/07/09 05:57:31;;;;;;;;;;;;;;;22.83;33.44;95990.94;5016765;28;19917;-72
2023/07/09 05:59:56;;;;;;;;;;;;;;;22.97;31.35;95994.13;5001463;28;19921;-71
2023/07/09 06:02:21;;;;;;;;;;;;;;;23.13;35.75;96008.75;5013387;28;19929;-71
2023/07/09 06:04:49;;;;;;;;;;;;;;;23.28;32.85;96004.63;5018135;28;19917;-72
2023/07/09 06:07:14;;;;;;;;;;;;;;;23.48;34.24;96011.41;5011593;28;19932;-71
2023/07/09 06:09:40;;;;;;;;;;;;;;;23.60;33.30;96005.84;5014695;28;19917;-71
2023/07/09 06:12:05;;;;;;;;;;;;;;;23.75;32.16;96016.09;5015690;28;20466;-71
2023/07/09 06:14:31;;;;;;;;;;;;;;;23.87;32.36;96011.38;4982636;28;20054;-71
2023/07/09 06:16:56;;;;;;;;;;;;;;;24.00;32.99;96014.75;4997835;28;20180;-71
2023/07/09 06:19:22;;;;;;;;;;;;;;;24.19;31.19;96013.31;5012312;28;19917;-71
2023/07/09 06:21:47;;;;;;;;;;;;;;;24.38;31.62;96006.72;5013357;28;19921;-71
2023/07/09 06:24:12;;;;;;;;;;;;;;;24.48;32.92;96011.44;5013495;28;20653;-71
2023/07/09 06:26:38;;;;;;;;;;;;;;;24.63;31.18;96014.28;5017131;28;20404;-71
2023/07/09 06:29:03;;;;;;;;;;;;;;;24.70;31.31;96014.06;5019642;28;20008;-72
2023/07/09 06:31:28;;;;;;;;;;;;;;;24.82;30.75;96008.44;5021234;28;19970;-71
2023/07/09 06:33:54;;;;;;;;;;;;;;;24.98;30.27;96009.38;5016734;28;19917;-72
2023/07/09 06:36:19;;;;;;;;;;;;;;;25.09;29.87;96008.38;5002316;28;19924;-71
2023/07/09 06:38:44;;;;;;;;;;;;;;;25.24;30.99;96012.28;5011804;28;20644;-72
2023/07/09 06:41:10;;;;;;;;;;;;;;;25.31;31.43;96012.84;5012592;28;19917;-71
2023/07/09 06:43:38;;;;;;;;;;;;;;;25.40;30.93;96020.53;5003104;28;19944;-71
2023/07/09 06:46:04;;;;;;;;;;;;;;;25.56;30.27;96018.75;5002965;28;20012;-71
2023/07/09 06:48:29;;;;;;;;;;;;;;;25.67;29.89;96019.59;5001422;28;19988;-72
2023/07/09 06:50:55;;;;;;;;;;;;;;;25.83;29.04;96017.75;5017148;28;19912;-72
2023/07/09 06:53:21;;;;;;;;;;;;;;;25.97;29.68;96018.88;5019738;28;19921;-72
2023/07/09 06:55:47;;;;;;;;;;;;;;;26.04;29.47;96024.09;5016668;28;19924;-71
2023/07/09 06:58:12;;;;;;;;;;;;;;;26.17;30.13;96022.75;5004895;28;20416;-71
2023/07/09 07:00:37;;;;;;;;;;;;;;;26.21;28.55;96023.84;5009506;28;19964;-71
2023/07/09 07:03:03;;;;;;;;;;;;;;;26.40;28.43;96026.06;5003202;28;20305;-71
2023/07/09 07:05:28;;;;;;;;;;;;;;;26.61;28.75;96031.56;5019672;28;20047;-72
2023/07/09 07:07:53;;;;;;;;;;;;;;;26.74;28.86;96017.38;5015291;28;19917;-72
2023/07/09 07:10:19;;;;;;;;;;;;;;;26.54;29.60;96022.81;5006198;28;20282;-72
2023/07/09 07:12:45;;;;;;;;;;;;;;;26.48;28.76;96022.00;5005922;28;19990;-72
2023/07/09 07:15:11;;;;;;;;;;;;;;;26.73;28.10;96017.66;5014839;28;19920;-72
2023/07/09 07:17:37;;;;;;;;;;;;;;;26.92;28.23;96017.91;5009853;28;19984;-72
2023/07/09 07:20:02;;;;;;;;;;;;;;;27.09;26.68;96022.28;5018015;28;19963;-71
2023/07/09 07:22:27;;;;;;;;;;;;;;;26.24;28.72;96020.59;4986777;28;19916;-71
2023/07/09 07:24:53;;;;;;;;;;;;;;;26.85;28.51;96014.66;5018391;28;20164;-71
2023/07/09 07:27:18;;;;;;;;;;;;;;;26.96;27.62;96016.28;5014741;28;19921;-72
2023/07/09 07:29:44;;;;;;;;;;;;;;;26.09;27.73;96026.03;5013857;28;20005;-72
2023/07/09 07:32:10;;;;;;;;;;;;;;;25.96;28.45;96016.41;5021425;28;20610;-72
2023/07/09 07:34:35;;;;;;;;;;;;;;;26.19;29.06;96014.31;5005946;28;20004;-72
2023/07/09 07:37:00;;;;;;;;;;;;;;;26.43;28.46;96002.88;5014383;28;20323;-72
2023/07/09 07:39:26;;;;;;;;;;;;;;;26.68;28.57;96007.56;5013107;28;19967;-71
2023/07/09 07:41:51;;;;;;;;;;;;;;;27.08;28.58;96006.94;5003008;28;20472;-71
2023/07/09 07:44:16;;;;;;;;;;;;;;;27.42;26.54;96000.88;5002475;28;20016;-72
2023/07/09 07:46:42;;;;;;;;;;;;;;;27.94;27.52;96006.16;5006323;28;19909;-71
2023/07/09 07:49:07;;;;;;;;;;;;;;;27.69;27.85;96001.63;5001034;28;19913;-71
2023/07/09 07:51:33;;;;;;;;;;;;;;;27.90;26.94;96000.44;5017240;28;19995;-72
2023/07/09 07:53:59;;;;;;;;;;;;;;;28.26;26.63;95995.88;5017732;28;20733;-71
2023/07/09 07:56:25;;;;;;;;;;;;;;;28.37;27.04;96004.81;5017923;28;20167;-71
2023/07/09 07:58:50;;;;;;;;;;;;;;;28.72;26.77;96008.41;5004381;28;19925;-72
2023/07/09 08:01:16;;;;;;;;;;;;;;;28.13;26.79;96002.75;5020952;28;19916;-71
2023/07/09 08:03:41;;;;;;;;;;;;;;;28.58;26.63;96005.47;5005160;28;19975;-71
2023/07/09 08:06:06;;;;;;;;;;;;;;;28.35;26.07;96001.56;5017455;28;19947;-71
2023/07/09 08:08:31;;;;;;;;;;;;;;;28.48;26.17;96002.84;5015026;28;20012;-72
2023/07/09 08:11:00;;;;;;;;;;;;;;;28.70;26.00;96007.06;5014356;28;19913;-71
2023/07/09 08:13:26;;;;;;;;;;;;;;;28.96;26.08;95998.63;5003742;28;19913;-71
2023/07/09 08:15:51;;;;;;;;;;;;;;;29.23;25.62;96006.31;5015725;28;19917;-71
2023/07/09 08:18:16;;;;;;;;;;;;;;;29.36;26.44;96002.06;5012375;28;19932;-72
2023/07/09 08:20:44;;;;;;;;;;;;;;;29.84;25.23;96007.84;5011499;28;19914;-71
2023/07/09 08:23:10;;;;;;;;;;;;;;;29.58;25.97;96002.63;5016166;28;20368;-71
2023/07/09 08:25:35;;;;;;;;;;;;;;;28.93;25.61;96002.75;5017138;28;20138;-71
2023/07/09 08:28:00;;;;;;;;;;;;;;;29.04;26.57;96007.03;5001827;28;19971;-71
2023/07/09 08:30:26;;;;;;;;;;;;;;;29.48;25.80;96003.56;5017621;28;19921;-71
2023/07/09 08:32:51;;;;;;;;;;;;;;;29.97;25.81;96006.28;5011815;28;19920;-71
2023/07/09 08:35:16;;;;;;;;;;;;;;;29.98;26.33;96008.75;5014953;28;20016;-71
2023/07/09 08:37:41;;;;;;;;;;;;;;;30.27;25.22;96005.06;5012842;28;19919;-71
2023/07/09 08:40:09;;;;;;;;;;;;;;;28.55;24.48;96006.06;5014405;28;20521;-72
2023/07/09 08:42:42;;;;;;;;;;;;;;;29.63;23.70;96005.34;5017453;28;19913;-71
2023/07/09 08:45:07;;;;;;;;;;;;;;;29.14;26.29;96002.53;4988395;28;19998;-71
2023/07/09 08:47:42;;;;;;;;;;;;;;;30.13;25.75;96002.22;5014982;28;20035;-71
2023/07/09 08:50:09;;;;;;;;;;;;;;;30.23;24.08;96004.03;5020113;28;19943;-71
2023/07/09 08:52:52;;;;;;;;;;;;;;;30.37;22.12;96001.34;5003571;28;19971;-71
2023/07/09 08:55:21;;;;;;;;;;;;;;;30.13;23.51;96002.22;5000464;28;19913;-71
2023/07/09 08:57:54;;;;;;;;;;;;;;;29.37;25.46;96008.38;5014493;28;19917;-71
2023/07/09 09:00:31;;;;;;;;;;;;;;;30.11;24.68;96007.16;4999792;28;19955;-71
2023/07/09 09:02:58;;;;;;;;;;;;;;;30.14;25.16;96005.78;5014554;28;19924;-71
2023/07/09 09:05:23;;;;;;;;;;;;;;;29.85;24.86;96015.78;5001314;28;20391;-71
2023/07/09 09:07:56;;;;;;;;;;;;;;;30.35;25.61;96011.78;5007872;28;19920;-71
2023/07/09 09:10:24;;;;;;;;;;;;;;;28.92;25.54;96003.84;5010207;28;19940;-71
2023/07/09 09:12:59;;;;;;;;;;;;;;;30.00;23.38;96003.75;5002730;28;20004;-71
2023/07/09 09:15:24;;;;;;;;;;;;;;;30.27;24.50;96002.31;5001746;28;19963;-71
2023/07/09 09:17:54;;;;;;;;;;;;;;;30.90;23.31;96002.16;5010989;28;19917;-71
2023/07/09 09:20:22;;;;;;;;;;;;;;;30.74;23.15;96011.75;5001502;28;19913;-71
2023/07/09 09:22:56;;;;;;;;;;;;;;;30.07;23.61;95995.97;5014956;28;20481;-72
2023/07/09 09:25:24;;;;;;;;;;;;;;;30.88;23.25;96001.63;5012619;28;20044;-71
2023/07/09 09:27:49;;;;;;;;;;;;;;;30.13;23.60;95999.47;5002815;28;19916;-71
2023/07/09 09:30:15;;;;;;;;;;;;;;;30.94;21.84;95991.38;5018279;28;19936;-71
2023/07/09 09:32:44;;;;;;;;;;;;;;;31.41;21.50;95998.78;5015932;28;19924;-71
2023/07/09 09:35:15;;;;;;;;;;;;;;;31.38;21.10;95997.44;5014913;28;19959;-71
2023/07/09 09:37:40;;;;;;;;;;;;;;;31.82;21.42;95995.22;5002464;28;20281;-71
2023/07/09 09:40:08;;;;;;;;;;;;;;;31.86;20.61;96001.72;5014288;28;19925;-71
2023/07/09 09:42:33;;;;;;;;;;;;;;;31.30;21.81;96000.91;4998773;28;19916;-71
2023/07/09 09:44:58;;;;;;;;;;;;;;;31.08;21.66;96005.94;5016621;28;19913;-71
2023/07/09 09:47:27;;;;;;;;;;;;;;;31.82;20.71;96000.72;5011219;28;19917;-71
2023/07/09 09:49:53;;;;;;;;;;;;;;;30.83;22.20;96013.50;4997401;28;19908;-71
2023/07/09 09:52:18;;;;;;;;;;;;;;;29.12;23.86;96007.50;5018920;28;20645;-71
2023/07/09 09:54:51;;;;;;;;;;;;;;;31.48;21.79;96007.44;5017314;28;19909;-71
2023/07/09 09:57:20;;;;;;;;;;;;;;;31.58;21.86;96001.69;4994377;28;19967;-71
2023/07/09 09:59:46;;;;;;;;;;;;;;;29.37;23.93;96011.09;5013224;28;19917;-71
2023/07/09 10:02:18;;;;;;;;;;;;;;;31.01;22.85;96008.28;5001076;28;20352;-71
2023/07/09 10:04:44;;;;;;;;;;;;;;;31.47;21.74;96005.81;4994361;28;19918;-71
2023/07/09 10:07:11;;;;;;;;;;;;;;;32.52;20.69;96007.94;5015749;28;19928;-71
2023/07/09 10:09:39;;;;;;;;;;;;;;;32.43;21.18;96009.84;5000288;28;19901;-71
2023/07/09 10:12:10;;;;;;;;;;;;;;;32.81;21.03;95998.47;5011736;28;19961;-71
2023/07/09 10:14:54;;;;;;;;;;;;;;;32.87;20.41;96002.69;5015935;28;20160;-71
2023/07/09 10:17:25;;;;;;;;;;;;;;;31.43;21.80;96004.75;5011866;28;20450;-72
2023/07/09 10:19:57;;;;;;;;;;;;;;;32.05;21.44;95999.94;4995620;28;20607;-72
2023/07/09 10:22:24;;;;;;;;;;;;;;;32.45;20.97;95996.56;5013286;28;20288;-71
2023/07/09 10:24:57;;;;;;;;;;;;;;;32.96;20.28;95994.47;5002070;28;19995;-71
2023/07/09 10:27:25;;;;;;;;;;;;;;;33.10;19.73;95986.16;5001696;28;19916;-71
2023/07/09 10:29:50;;;;;;;;;;;;;;;33.31;18.76;95987.53;5002079;28;19909;-71
2023/07/09 10:32:18;;;;;;;;;;;;;;;34.07;18.70;95982.88;5013677;28;20467;-71
2023/07/09 10:34:52;;;;;;;;;;;;;;;33.52;17.95;95979.53;5014806;28;19909;-71
2023/07/09 10:37:53;;;;;;;;;;;;;;;32.98;18.58;95985.91;5017431;28;20317;-71
2023/07/09 10:40:21;;;;;;;;;;;;;;;32.03;20.19;95971.91;4954228;28;19961;-72
2023/07/09 10:42:54;;;;;;;;;;;;;;;31.04;20.91;95971.94;4988247;28;19909;-71
2023/07/09 10:45:21;;;;;;;;;;;;;;;32.35;19.29;95976.41;5000203;28;19968;-72
2023/07/09 10:47:50;;;;;;;;;;;;;;;32.42;19.37;95978.72;5017038;28;20112;-71
2023/07/09 10:50:17;;;;;;;;;;;;;;;30.95;20.31;95984.75;5000076;28;20250;-71
2023/07/09 10:52:44;;;;;;;;;;;;;;;31.89;19.08;95974.69;4998308;28;20147;-71
2023/07/09 10:55:16;;;;;;;;;;;;;;;32.99;18.64;95976.53;5016426;28;19963;-71
2023/07/09 10:58:00;;;;;;;;;;;;;;;32.58;19.23;95978.38;4999983;28;19924;-71
2023/07/09 11:00:52;;;;;;;;;;;;;;;33.47;19.09;95982.44;5015310;28;19951;-71
2023/07/09 11:03:19;;;;;;;;;;;;;;;32.18;19.31;95987.28;5004620;28;19933;-71
2023/07/09 11:05:44;;;;;;;;;;;;;;;33.70;18.25;95985.06;4992332;28;19918;-71
2023/07/09 11:08:11;;;;;;;;;;;;;;;33.83;17.28;95991.59;4989649;28;19924;-71
2023/07/09 11:10:37;;;;;;;;;;;;;;;33.37;18.12;95972.44;4994804;28;19917;-71
2023/07/09 11:13:03;;;;;;;;;;;;;;;32.73;19.06;95971.69;4995352;28;19917;-71
2023/07/09 11:15:32;;;;;;;;;;;;;;;33.42;19.10;95969.56;4996389;28;20449;-71
2023/07/09 11:17:58;;;;;;;;;;;;;;;34.31;17.62;95973.31;4981057;28;20551;-71
2023/07/09 11:20:24;;;;;;;;;;;;;;;34.54;17.56;95973.16;4993975;28;19917;-71
2023/07/09 11:22:54;;;;;;;;;;;;;;;35.14;17.39;95978.84;4992101;28;19949;-71
2023/07/09 11:25:30;;;;;;;;;;;;;;;35.46;16.61;95972.25;4994556;28;19917;-71
2023/07/09 11:28:05;;;;;;;;;;;;;;;34.43;17.43;95974.63;4992426;28;20213;-71
2023/07/09 11:30:30;;;;;;;;;;;;;;;34.58;17.73;95965.81;4993102;28;20067;-71
2023/07/09 11:33:02;;;;;;;;;;;;;;;35.05;17.34;95972.56;4979726;28;19952;-71
2023/07/09 11:35:28;;;;;;;;;;;;;;;35.54;17.09;95963.06;5000107;28;19917;-71
2023/07/09 11:37:54;;;;;;;;;;;;;;;36.25;16.79;95965.38;4990190;28;19918;-71
2023/07/09 11:40:20;;;;;;;;;;;;;;;36.35;16.12;95956.66;4994684;28;19918;-69
2023/07/09 11:42:49;;;;;;;;;;;;;;;36.58;16.00;95959.09;4990237;28;20060;-69
2023/07/09 11:45:16;;;;;;;;;;;;;;;37.17;15.69;95946.03;4995061;28;19922;-70
2023/07/09 11:47:45;;;;;;;;;;;;;;;37.26;14.95;95945.13;4989850;28;20589;-70
2023/07/09 11:50:25;;;;;;;;;;;;;;;37.58;14.49;95939.81;4998730;28;19987;-70
2023/07/09 11:52:51;;;;;;;;;;;;;;;34.64;16.08;95939.66;4993902;28;20337;-71
2023/07/09 11:55:20;;;;;;;;;;;;;;;35.89;16.27;95926.09;4993601;28;20540;-70
2023/07/09 11:57:49;;;;;;;;;;;;;;;36.64;15.06;95930.00;4995694;28;20015;-69
2023/07/09 12:00:15;;;;;;;;;;;;;;;36.28;15.67;95935.06;4975510;28;19921;-70
2023/07/09 12:02:40;;;;;;;;;;;;;;;36.12;15.67;95936.84;4998162;28;19929;-70
2023/07/09 12:05:05;;;;;;;;;;;;;;;35.74;15.03;95936.59;4983578;28;19918;-70
2023/07/09 12:07:31;;;;;;;;;;;;;;;36.34;14.71;95932.88;5003647;28;20516;-70
2023/07/09 12:09:56;;;;;;;;;;;;;;;36.80;15.36;95929.34;5000528;28;19928;-71
2023/07/09 12:12:23;;;;;;;;;;;;;;;37.43;14.31;95930.22;5001230;28;19921;-71
2023/07/09 12:14:48;;;;;;;;;;;;;;;37.48;14.25;95921.66;5003576;28;19918;-72
2023/07/09 12:17:13;;;;;;;;;;;;;;;37.27;14.40;95924.53;5003494;28;20314;-71
2023/07/09 12:19:39;;;;;;;;;;;;;;;37.79;13.57;95922.22;5001680;28;20016;-71
2023/07/09 12:22:06;;;;;;;;;;;;;;;37.75;13.74;95921.31;5002992;28;19913;-72
2023/07/09 12:24:35;;;;;;;;;;;;;;;36.83;14.42;95915.59;5001120;28;20014;-71
2023/07/09 12:27:02;;;;;;;;;;;;;;;36.62;13.81;95917.63;5002427;28;19909;-72
2023/07/09 12:29:28;;;;;;;;;;;;;;;35.66;14.28;95910.63;5002084;28;20400;-72
2023/07/09 12:31:53;;;;;;;;;;;;;;;35.34;14.56;95903.81;5002232;28;19982;-72
2023/07/09 12:34:18;;;;;;;;;;;;;;;35.81;14.54;95906.44;5000420;28;19928;-71
2023/07/09 12:36:45;;;;;;;;;;;;;;;35.24;15.61;95905.00;5003307;28;19913;-71
2023/07/09 12:39:12;;;;;;;;;;;;;;;34.87;15.89;95922.84;5000921;28;19921;-71
2023/07/09 12:41:38;;;;;;;;;;;;;;;34.09;16.31;95906.03;5001887;28;19971;-72
2023/07/09 12:44:04;;;;;;;;;;;;;;;35.50;16.08;95901.25;5001667;28;19913;-71
2023/07/09 12:46:29;;;;;;;;;;;;;;;36.40;15.75;95897.47;5001927;28;20007;-72